sensor_id;sensor_type;location;lat;lon;timestamp;temperature;humidity
47382;DHT22;33128;51.580;5.170;2023-03-13T00:00:19;13.20;99.90
47382;DHT22;33128;51.580;5.170;2023-03-13T00:02:45;13.30;99.90
47382;DHT22;33128;51.580;5.170;2023-03-13T00:05:12;13.50;99.90
47382;DHT22;33128;51.580;5.170;2023-03-13T00:07:38;13.40;99.90
47382;DHT22;33128;51.580;5.170;2023-03-13T00:10:04;13.30;99.90
47382;DHT22;33128;51.580;5.170;2023-03-13T00:12:30;13.30;99.90
47382;DHT22;33128;51.580;5.170;2023-03-13T00:14:56;13.40;99.90
47382;DHT22;33128;51.580;5.170;2023-03-13T00:17:22;13.50;99.90
47382;DHT22;33128;51.580;5.170;2023-03-13T00:19:48;13.50;99.90
47382;DHT22;33128;51.580;5.170;2023-03-13T00:22:14;13.40;99.90
47382;DHT22;33128;51.580;5.170;2023-03-13T00:24:39;13.40;99.90
47382;DHT22;33128;51.580;5.170;2023-03-13T00:27:05;13.40;99.90
47382;DHT22;33128;51.580;5.170;2023-03-13T00:29:32;13.40;99.90
47382;DHT22;33128;51.580;5.170;2023-03-13T00:31:59;13.40;99.90
47382;DHT22;33128;51.580;5.170;2023-03-13T00:34:25;13.40;99.90
47382;DHT22;33128;51.580;5.170;2023-03-13T00:36:52;13.40;99.90
47382;DHT22;33128;51.580;5.170;2023-03-13T00:39:19;13.50;99.90
47382;DHT22;33128;51.580;5.170;2023-03-13T00:41:45;13.50;99.90
47382;DHT22;33128;51.580;5.170;2023-03-13T00:44:10;13.40;99.90
47382;DHT22;33128;51.580;5.170;2023-03-13T00:46:39;13.50;99.90
47382;DHT22;33128;51.580;5.170;2023-03-13T00:49:04;13.50;99.90
47382;DHT22;33128;51.580;5.170;2023-03-13T00:51:30;13.60;99.90
47382;DHT22;33128;51.580;5.170;2023-03-13T00:53:57;13.60;99.90
47382;DHT22;33128;51.580;5.170;2023-03-13T00:56:26;13.60;99.90
47382;DHT22;33128;51.580;5.170;2023-03-13T00:58:52;13.50;99.90
47382;DHT22;33128;51.580;5.170;2023-03-13T01:01:23;13.40;99.90
47382;DHT22;33128;51.580;5.170;2023-03-13T01:03:52;13.50;99.90
47382;DHT22;33128;51.580;5.170;2023-03-13T01:06:21;13.40;99.90
47382;DHT22;33128;51.580;5.170;2023-03-13T01:08:47;13.50;99.90
47382;DHT22;33128;51.580;5.170;2023-03-13T01:11:16;13.40;99.90
47382;DHT22;33128;51.580;5.170;2023-03-13T01:13:45;13.50;99.90
47382;DHT22;33128;51.580;5.170;2023-03-13T01:16:13;13.40;99.90
47382;DHT22;33128;51.580;5.170;2023-03-13T01:18:45;13.40;99.90
47382;DHT22;33128;51.580;5.170;2023-03-13T01:21:12;13.50;99.90
47382;DHT22;33128;51.580;5.170;2023-03-13T01:23:37;13.40;99.90
47382;DHT22;33128;51.580;5.170;2023-03-13T01:26:04;13.40;99.90
47382;DHT22;33128;51.580;5.170;2023-03-13T01:28:30;13.40;99.90
47382;DHT22;33128;51.580;5.170;2023-03-13T01:30:56;13.40;99.90
47382;DHT22;33128;51.580;5.170;2023-03-13T01:33:22;13.40;99.90
47382;DHT22;33128;51.580;5.170;2023-03-13T01:35:47;13.40;99.90
47382;DHT22;33128;51.580;5.170;2023-03-13T01:38:13;13.40;99.90
47382;DHT22;33128;51.580;5.170;2023-03-13T01:40:46;13.30;99.90
47382;DHT22;33128;51.580;5.170;2023-03-13T01:50:53;13.60;99.90
47382;DHT22;33128;51.580;5.170;2023-03-13T01:53:21;13.70;99.90
47382;DHT22;33128;51.580;5.170;2023-03-13T01:55:47;13.70;99.90
47382;DHT22;33128;51.580;5.170;2023-03-13T01:58:13;13.70;99.90
47382;DHT22;33128;51.580;5.170;2023-03-13T02:00:40;13.60;99.90
47382;DHT22;33128;51.580;5.170;2023-03-13T02:03:11;13.70;99.90
47382;DHT22;33128;51.580;5.170;2023-03-13T02:05:43;13.50;99.90
47382;DHT22;33128;51.580;5.170;2023-03-13T02:08:20;13.50;99.90
47382;DHT22;33128;51.580;5.170;2023-03-13T02:11:18;13.60;99.90
47382;DHT22;33128;51.580;5.170;2023-03-13T02:13:46;13.70;99.90
47382;DHT22;33128;51.580;5.170;2023-03-13T02:16:13;13.70;99.90
47382;DHT22;33128;51.580;5.170;2023-03-13T02:18:38;13.70;99.90
47382;DHT22;33128;51.580;5.170;2023-03-13T02:21:12;13.70;99.90
47382;DHT22;33128;51.580;5.170;2023-03-13T02:26:35;13.70;99.90
47382;DHT22;33128;51.580;5.170;2023-03-13T02:29:01;13.80;99.90
47382;DHT22;33128;51.580;5.170;2023-03-13T02:31:26;13.90;99.90
47382;DHT22;33128;51.580;5.170;2023-03-13T02:34:01;13.90;99.90
47382;DHT22;33128;51.580;5.170;2023-03-13T02:36:29;13.90;99.90
47382;DHT22;33128;51.580;5.170;2023-03-13T02:38:59;13.90;99.90
47382;DHT22;33128;51.580;5.170;2023-03-13T02:41:27;13.50;99.90
47382;DHT22;33128;51.580;5.170;2023-03-13T02:43:53;13.70;99.90
47382;DHT22;33128;51.580;5.170;2023-03-13T02:46:20;13.70;99.90
47382;DHT22;33128;51.580;5.170;2023-03-13T02:48:48;13.60;99.90
47382;DHT22;33128;51.580;5.170;2023-03-13T02:53:54;13.60;99.90
47382;DHT22;33128;51.580;5.170;2023-03-13T02:56:25;13.50;99.90
47382;DHT22;33128;51.580;5.170;2023-03-13T02:58:51;13.70;99.90
47382;DHT22;33128;51.580;5.170;2023-03-13T03:01:16;13.70;99.90
47382;DHT22;33128;51.580;5.170;2023-03-13T03:03:42;13.50;99.90
47382;DHT22;33128;51.580;5.170;2023-03-13T03:06:08;13.60;99.90
47382;DHT22;33128;51.580;5.170;2023-03-13T03:08:34;13.80;99.90
47382;DHT22;33128;51.580;5.170;2023-03-13T03:11:00;13.90;99.90
47382;DHT22;33128;51.580;5.170;2023-03-13T03:13:26;13.90;99.90
47382;DHT22;33128;51.580;5.170;2023-03-13T03:15:51;14.00;99.90
47382;DHT22;33128;51.580;5.170;2023-03-13T03:18:17;13.90;99.90
47382;DHT22;33128;51.580;5.170;2023-03-13T03:20:43;14.00;99.90
47382;DHT22;33128;51.580;5.170;2023-03-13T03:23:08;13.80;99.90
47382;DHT22;33128;51.580;5.170;2023-03-13T03:25:34;13.70;99.90
47382;DHT22;33128;51.580;5.170;2023-03-13T03:27:59;13.60;99.90
47382;DHT22;33128;51.580;5.170;2023-03-13T03:30:25;13.50;99.90
47382;DHT22;33128;51.580;5.170;2023-03-13T03:32:50;13.70;99.90
47382;DHT22;33128;51.580;5.170;2023-03-13T03:35:16;13.80;99.90
47382;DHT22;33128;51.580;5.170;2023-03-13T03:37:42;13.80;99.90
47382;DHT22;33128;51.580;5.170;2023-03-13T03:40:08;13.80;99.90
47382;DHT22;33128;51.580;5.170;2023-03-13T03:42:35;13.80;99.90
47382;DHT22;33128;51.580;5.170;2023-03-13T03:45:00;13.80;99.90
47382;DHT22;33128;51.580;5.170;2023-03-13T03:47:26;13.60;99.90
47382;DHT22;33128;51.580;5.170;2023-03-13T03:49:52;13.50;99.90
47382;DHT22;33128;51.580;5.170;2023-03-13T03:52:17;13.40;99.90
47382;DHT22;33128;51.580;5.170;2023-03-13T03:54:43;13.30;99.90
47382;DHT22;33128;51.580;5.170;2023-03-13T03:57:08;13.30;99.90
47382;DHT22;33128;51.580;5.170;2023-03-13T03:59:34;13.40;99.90
47382;DHT22;33128;51.580;5.170;2023-03-13T04:01:59;13.30;99.90
47382;DHT22;33128;51.580;5.170;2023-03-13T04:04:25;13.30;99.90
47382;DHT22;33128;51.580;5.170;2023-03-13T04:06:51;13.40;99.90
47382;DHT22;33128;51.580;5.170;2023-03-13T04:09:16;13.40;99.90
47382;DHT22;33128;51.580;5.170;2023-03-13T04:11:42;13.40;99.90
47382;DHT22;33128;51.580;5.170;2023-03-13T04:14:08;13.50;99.90
47382;DHT22;33128;51.580;5.170;2023-03-13T04:16:33;13.40;99.90
47382;DHT22;33128;51.580;5.170;2023-03-13T04:18:59;13.50;99.90
47382;DHT22;33128;51.580;5.170;2023-03-13T04:21:24;13.50;99.90
47382;DHT22;33128;51.580;5.170;2023-03-13T04:23:50;13.40;99.90
47382;DHT22;33128;51.580;5.170;2023-03-13T04:26:16;13.60;99.90
47382;DHT22;33128;51.580;5.170;2023-03-13T04:28:41;13.50;99.90
47382;DHT22;33128;51.580;5.170;2023-03-13T04:31:07;13.50;99.90
47382;DHT22;33128;51.580;5.170;2023-03-13T04:33:32;13.50;99.90
47382;DHT22;33128;51.580;5.170;2023-03-13T04:35:58;13.60;99.90
47382;DHT22;33128;51.580;5.170;2023-03-13T04:38:24;13.60;99.90
47382;DHT22;33128;51.580;5.170;2023-03-13T04:40:53;13.70;99.90
47382;DHT22;33128;51.580;5.170;2023-03-13T04:43:18;13.70;99.90
47382;DHT22;33128;51.580;5.170;2023-03-13T04:45:44;13.60;99.90
47382;DHT22;33128;51.580;5.170;2023-03-13T04:48:11;13.70;99.90
47382;DHT22;33128;51.580;5.170;2023-03-13T04:50:36;13.60;99.90
47382;DHT22;33128;51.580;5.170;2023-03-13T04:53:02;13.60;99.90
47382;DHT22;33128;51.580;5.170;2023-03-13T04:55:28;13.70;99.90
47382;DHT22;33128;51.580;5.170;2023-03-13T04:57:56;13.90;99.90
47382;DHT22;33128;51.580;5.170;2023-03-13T05:00:22;14.00;99.90
47382;DHT22;33128;51.580;5.170;2023-03-13T05:02:47;14.10;99.90
47382;DHT22;33128;51.580;5.170;2023-03-13T05:05:13;14.20;99.90
47382;DHT22;33128;51.580;5.170;2023-03-13T05:07:39;14.20;99.90
47382;DHT22;33128;51.580;5.170;2023-03-13T05:10:04;14.30;99.90
47382;DHT22;33128;51.580;5.170;2023-03-13T05:12:30;14.10;99.90
47382;DHT22;33128;51.580;5.170;2023-03-13T05:14:56;13.90;99.90
47382;DHT22;33128;51.580;5.170;2023-03-13T05:17:21;13.90;99.90
47382;DHT22;33128;51.580;5.170;2023-03-13T05:19:47;13.90;99.90
47382;DHT22;33128;51.580;5.170;2023-03-13T05:22:12;13.90;99.90
47382;DHT22;33128;51.580;5.170;2023-03-13T05:24:38;13.80;99.90
47382;DHT22;33128;51.580;5.170;2023-03-13T05:27:04;13.80;99.90
47382;DHT22;33128;51.580;5.170;2023-03-13T05:29:29;13.70;99.90
47382;DHT22;33128;51.580;5.170;2023-03-13T05:31:55;13.70;99.90
47382;DHT22;33128;51.580;5.170;2023-03-13T05:34:20;13.70;99.90
47382;DHT22;33128;51.580;5.170;2023-03-13T05:36:46;13.70;99.90
47382;DHT22;33128;51.580;5.170;2023-03-13T05:39:12;13.80;99.90
47382;DHT22;33128;51.580;5.170;2023-03-13T05:41:37;13.80;99.90
47382;DHT22;33128;51.580;5.170;2023-03-13T05:44:03;13.80;99.90
47382;DHT22;33128;51.580;5.170;2023-03-13T05:46:29;13.80;99.90
47382;DHT22;33128;51.580;5.170;2023-03-13T05:48:55;13.70;99.90
47382;DHT22;33128;51.580;5.170;2023-03-13T05:51:20;13.80;99.90
47382;DHT22;33128;51.580;5.170;2023-03-13T05:53:46;13.80;99.90
47382;DHT22;33128;51.580;5.170;2023-03-13T05:56:12;13.80;99.90
47382;DHT22;33128;51.580;5.170;2023-03-13T05:58:37;13.80;99.90
47382;DHT22;33128;51.580;5.170;2023-03-13T06:01:07;13.80;99.90
47382;DHT22;33128;51.580;5.170;2023-03-13T06:03:33;13.80;99.90
47382;DHT22;33128;51.580;5.170;2023-03-13T06:05:59;13.90;99.90
47382;DHT22;33128;51.580;5.170;2023-03-13T06:08:24;13.90;99.90
47382;DHT22;33128;51.580;5.170;2023-03-13T06:10:50;13.80;99.90
47382;DHT22;33128;51.580;5.170;2023-03-13T06:13:16;13.80;99.90
47382;DHT22;33128;51.580;5.170;2023-03-13T06:15:41;13.90;99.90
47382;DHT22;33128;51.580;5.170;2023-03-13T06:18:07;13.90;99.90
47382;DHT22;33128;51.580;5.170;2023-03-13T06:20:32;13.90;99.90
47382;DHT22;33128;51.580;5.170;2023-03-13T06:22:58;13.90;99.90
47382;DHT22;33128;51.580;5.170;2023-03-13T06:25:23;13.90;99.90
47382;DHT22;33128;51.580;5.170;2023-03-13T06:27:50;13.90;99.90
47382;DHT22;33128;51.580;5.170;2023-03-13T06:30:15;13.80;99.90
47382;DHT22;33128;51.580;5.170;2023-03-13T06:32:41;13.90;99.90
47382;DHT22;33128;51.580;5.170;2023-03-13T06:35:07;13.80;99.90
47382;DHT22;33128;51.580;5.170;2023-03-13T06:37:33;13.90;99.90
47382;DHT22;33128;51.580;5.170;2023-03-13T06:39:58;13.80;99.90
47382;DHT22;33128;51.580;5.170;2023-03-13T06:42:24;13.80;99.90
47382;DHT22;33128;51.580;5.170;2023-03-13T06:44:49;13.80;99.90
47382;DHT22;33128;51.580;5.170;2023-03-13T06:47:15;13.90;99.90
47382;DHT22;33128;51.580;5.170;2023-03-13T06:49:41;13.80;99.90
47382;DHT22;33128;51.580;5.170;2023-03-13T06:52:06;13.80;99.90
47382;DHT22;33128;51.580;5.170;2023-03-13T06:54:32;13.90;99.90
47382;DHT22;33128;51.580;5.170;2023-03-13T06:56:58;13.90;99.90
47382;DHT22;33128;51.580;5.170;2023-03-13T06:59:23;13.90;99.90
47382;DHT22;33128;51.580;5.170;2023-03-13T07:01:49;13.90;99.90
47382;DHT22;33128;51.580;5.170;2023-03-13T07:04:15;13.90;99.90
47382;DHT22;33128;51.580;5.170;2023-03-13T07:06:40;13.90;99.90
47382;DHT22;33128;51.580;5.170;2023-03-13T07:09:06;13.90;99.90
47382;DHT22;33128;51.580;5.170;2023-03-13T07:11:32;13.90;99.90
47382;DHT22;33128;51.580;5.170;2023-03-13T07:13:57;14.00;99.90
47382;DHT22;33128;51.580;5.170;2023-03-13T07:16:26;14.10;99.90
47382;DHT22;33128;51.580;5.170;2023-03-13T07:18:52;14.10;99.90
47382;DHT22;33128;51.580;5.170;2023-03-13T07:21:17;14.10;99.90
47382;DHT22;33128;51.580;5.170;2023-03-13T07:23:43;14.20;99.90
47382;DHT22;33128;51.580;5.170;2023-03-13T07:26:13;14.10;99.90
47382;DHT22;33128;51.580;5.170;2023-03-13T07:28:38;14.20;99.90
47382;DHT22;33128;51.580;5.170;2023-03-13T07:31:12;14.10;99.90
47382;DHT22;33128;51.580;5.170;2023-03-13T07:33:39;14.00;99.90
47382;DHT22;33128;51.580;5.170;2023-03-13T07:36:05;14.00;99.90
47382;DHT22;33128;51.580;5.170;2023-03-13T07:38:31;14.00;99.90
47382;DHT22;33128;51.580;5.170;2023-03-13T07:40:57;14.00;99.90
47382;DHT22;33128;51.580;5.170;2023-03-13T07:43:24;13.90;99.90
47382;DHT22;33128;51.580;5.170;2023-03-13T07:45:55;14.00;99.90
47382;DHT22;33128;51.580;5.170;2023-03-13T07:48:24;14.00;99.90
47382;DHT22;33128;51.580;5.170;2023-03-13T07:50:50;13.90;99.90
47382;DHT22;33128;51.580;5.170;2023-03-13T07:53:16;13.90;99.90
47382;DHT22;33128;51.580;5.170;2023-03-13T07:56:06;13.90;99.90
47382;DHT22;33128;51.580;5.170;2023-03-13T07:58:36;13.90;99.90
47382;DHT22;33128;51.580;5.170;2023-03-13T08:01:14;13.80;99.90
47382;DHT22;33128;51.580;5.170;2023-03-13T08:03:40;13.80;99.90
47382;DHT22;33128;51.580;5.170;2023-03-13T08:06:08;13.90;99.90
47382;DHT22;33128;51.580;5.170;2023-03-13T08:08:36;14.00;99.90
47382;DHT22;33128;51.580;5.170;2023-03-13T08:11:04;14.00;99.90
47382;DHT22;33128;51.580;5.170;2023-03-13T08:13:31;13.90;99.90
47382;DHT22;33128;51.580;5.170;2023-03-13T08:18:31;13.90;99.90
47382;DHT22;33128;51.580;5.170;2023-03-13T08:21:01;14.00;99.90
47382;DHT22;33128;51.580;5.170;2023-03-13T08:23:27;13.90;99.90
47382;DHT22;33128;51.580;5.170;2023-03-13T08:25:53;13.80;99.90
47382;DHT22;33128;51.580;5.170;2023-03-13T08:28:18;13.80;99.90
47382;DHT22;33128;51.580;5.170;2023-03-13T08:30:44;13.80;99.90
47382;DHT22;33128;51.580;5.170;2023-03-13T08:33:09;14.20;99.90
47382;DHT22;33128;51.580;5.170;2023-03-13T08:35:35;14.40;99.90
47382;DHT22;33128;51.580;5.170;2023-03-13T08:38:01;14.50;99.90
47382;DHT22;33128;51.580;5.170;2023-03-13T08:40:27;14.60;99.90
47382;DHT22;33128;51.580;5.170;2023-03-13T08:42:53;14.70;99.90
47382;DHT22;33128;51.580;5.170;2023-03-13T08:45:19;14.90;99.90
47382;DHT22;33128;51.580;5.170;2023-03-13T08:47:44;15.10;99.90
47382;DHT22;33128;51.580;5.170;2023-03-13T08:50:10;15.20;99.90
47382;DHT22;33128;51.580;5.170;2023-03-13T08:52:36;15.30;99.90
47382;DHT22;33128;51.580;5.170;2023-03-13T08:55:01;15.40;99.90
47382;DHT22;33128;51.580;5.170;2023-03-13T08:57:27;15.50;99.90
47382;DHT22;33128;51.580;5.170;2023-03-13T08:59:52;15.40;99.90
47382;DHT22;33128;51.580;5.170;2023-03-13T09:02:18;15.40;99.90
47382;DHT22;33128;51.580;5.170;2023-03-13T09:04:47;15.40;99.90
47382;DHT22;33128;51.580;5.170;2023-03-13T09:07:13;15.40;99.90
47382;DHT22;33128;51.580;5.170;2023-03-13T09:09:38;15.40;99.90
47382;DHT22;33128;51.580;5.170;2023-03-13T09:12:04;15.50;99.90
47382;DHT22;33128;51.580;5.170;2023-03-13T09:14:30;15.50;99.90
47382;DHT22;33128;51.580;5.170;2023-03-13T09:16:55;15.50;99.90
47382;DHT22;33128;51.580;5.170;2023-03-13T09:19:22;15.70;99.90
47382;DHT22;33128;51.580;5.170;2023-03-13T09:21:47;15.80;99.90
47382;DHT22;33128;51.580;5.170;2023-03-13T09:24:13;15.90;99.90
47382;DHT22;33128;51.580;5.170;2023-03-13T09:26:40;16.00;99.90
47382;DHT22;33128;51.580;5.170;2023-03-13T09:29:05;16.00;99.90
47382;DHT22;33128;51.580;5.170;2023-03-13T09:31:32;16.20;99.90
47382;DHT22;33128;51.580;5.170;2023-03-13T09:33:58;16.30;99.90
47382;DHT22;33128;51.580;5.170;2023-03-13T09:36:25;16.40;99.90
47382;DHT22;33128;51.580;5.170;2023-03-13T09:38:57;16.50;99.90
47382;DHT22;33128;51.580;5.170;2023-03-13T09:45:04;16.60;99.90
47382;DHT22;33128;51.580;5.170;2023-03-13T09:47:55;16.70;99.90
47382;DHT22;33128;51.580;5.170;2023-03-13T09:50:26;16.80;99.90
47382;DHT22;33128;51.580;5.170;2023-03-13T09:52:58;16.90;99.90
47382;DHT22;33128;51.580;5.170;2023-03-13T09:55:31;16.90;99.90
47382;DHT22;33128;51.580;5.170;2023-03-13T10:00:40;16.80;99.90
47382;DHT22;33128;51.580;5.170;2023-03-13T10:03:16;16.90;99.90
47382;DHT22;33128;51.580;5.170;2023-03-13T10:05:49;16.90;99.90
47382;DHT22;33128;51.580;5.170;2023-03-13T10:11:38;17.00;99.90
47382;DHT22;33128;51.580;5.170;2023-03-13T10:14:09;17.10;99.90
47382;DHT22;33128;51.580;5.170;2023-03-13T10:16:50;17.20;99.90
47382;DHT22;33128;51.580;5.170;2023-03-13T10:19:18;17.10;99.90
47382;DHT22;33128;51.580;5.170;2023-03-13T10:21:49;17.00;99.90
47382;DHT22;33128;51.580;5.170;2023-03-13T10:24:32;17.10;99.90
47382;DHT22;33128;51.580;5.170;2023-03-13T10:26:58;17.10;99.90
47382;DHT22;33128;51.580;5.170;2023-03-13T10:29:25;17.10;99.90
47382;DHT22;33128;51.580;5.170;2023-03-13T10:32:03;17.10;99.90
47382;DHT22;33128;51.580;5.170;2023-03-13T10:37:12;17.30;99.90
47382;DHT22;33128;51.580;5.170;2023-03-13T10:39:38;17.50;99.90
47382;DHT22;33128;51.580;5.170;2023-03-13T10:42:09;17.40;99.90
47382;DHT22;33128;51.580;5.170;2023-03-13T10:44:35;17.30;99.90
47382;DHT22;33128;51.580;5.170;2023-03-13T10:47:02;17.30;99.90
47382;DHT22;33128;51.580;5.170;2023-03-13T10:49:30;17.30;99.90
47382;DHT22;33128;51.580;5.170;2023-03-13T10:52:01;17.20;99.90
47382;DHT22;33128;51.580;5.170;2023-03-13T10:54:32;17.10;99.90
47382;DHT22;33128;51.580;5.170;2023-03-13T10:59:46;17.00;99.90
47382;DHT22;33128;51.580;5.170;2023-03-13T11:02:36;17.00;99.90
47382;DHT22;33128;51.580;5.170;2023-03-13T11:07:49;17.30;99.90
47382;DHT22;33128;51.580;5.170;2023-03-13T11:10:19;17.40;99.90
47382;DHT22;33128;51.580;5.170;2023-03-13T11:12:50;17.60;99.90
47382;DHT22;33128;51.580;5.170;2023-03-13T11:15:38;17.60;99.90
47382;DHT22;33128;51.580;5.170;2023-03-13T11:20:47;17.70;99.90
47382;DHT22;33128;51.580;5.170;2023-03-13T11:23:21;17.70;99.90
47382;DHT22;33128;51.580;5.170;2023-03-13T11:26:11;17.50;99.90
47382;DHT22;33128;51.580;5.170;2023-03-13T11:31:23;17.60;99.90
47382;DHT22;33128;51.580;5.170;2023-03-13T11:36:46;17.30;99.90
47382;DHT22;33128;51.580;5.170;2023-03-13T11:39:26;17.30;99.90
47382;DHT22;33128;51.580;5.170;2023-03-13T11:42:08;17.30;99.90
47382;DHT22;33128;51.580;5.170;2023-03-13T11:50:01;17.70;99.90
47382;DHT22;33128;51.580;5.170;2023-03-13T11:55:32;18.10;99.90
47382;DHT22;33128;51.580;5.170;2023-03-13T12:06:30;18.10;99.90
47382;DHT22;33128;51.580;5.170;2023-03-13T12:09:29;18.10;99.90
47382;DHT22;33128;51.580;5.170;2023-03-13T12:12:45;18.30;99.90
47382;DHT22;33128;51.580;5.170;2023-03-13T12:17:42;18.40;99.90
47382;DHT22;33128;51.580;5.170;2023-03-13T12:20:46;18.50;99.90
47382;DHT22;33128;51.580;5.170;2023-03-13T12:28:58;18.20;99.90
47382;DHT22;33128;51.580;5.170;2023-03-13T12:31:32;18.20;99.90
47382;DHT22;33128;51.580;5.170;2023-03-13T12:36:54;20.50;99.90
47382;DHT22;33128;51.580;5.170;2023-03-13T12:44:38;23.70;99.90
47382;DHT22;33128;51.580;5.170;2023-03-13T12:53:27;28.10;98.10
47382;DHT22;33128;51.580;5.170;2023-03-13T12:55:43;28.90;94.40
47382;DHT22;33128;51.580;5.170;2023-03-13T12:58:25;29.70;92.30
47382;DHT22;33128;51.580;5.170;2023-03-13T13:00:54;30.10;89.50
47382;DHT22;33128;51.580;5.170;2023-03-13T13:03:43;30.50;87.60
47382;DHT22;33128;51.580;5.170;2023-03-13T13:06:14;30.80;89.10
47382;DHT22;33128;51.580;5.170;2023-03-13T13:13:57;30.70;83.70
47382;DHT22;33128;51.580;5.170;2023-03-13T13:16:24;30.80;79.00
47382;DHT22;33128;51.580;5.170;2023-03-13T13:18:50;30.00;77.10
47382;DHT22;33128;51.580;5.170;2023-03-13T13:21:23;30.10;76.60
47382;DHT22;33128;51.580;5.170;2023-03-13T13:23:51;29.40;78.60
47382;DHT22;33128;51.580;5.170;2023-03-13T13:31:53;30.40;77.00
47382;DHT22;33128;51.580;5.170;2023-03-13T13:36:54;30.10;74.00
47382;DHT22;33128;51.580;5.170;2023-03-13T13:39:38;30.10;72.90
47382;DHT22;33128;51.580;5.170;2023-03-13T13:47:27;28.50;74.70
47382;DHT22;33128;51.580;5.170;2023-03-13T13:49:56;27.60;74.00
47382;DHT22;33128;51.580;5.170;2023-03-13T13:52:41;25.50;76.60
47382;DHT22;33128;51.580;5.170;2023-03-13T13:58:20;24.80;78.20
47382;DHT22;33128;51.580;5.170;2023-03-13T14:00:47;23.90;79.40
47382;DHT22;33128;51.580;5.170;2023-03-13T14:03:28;24.60;78.70
47382;DHT22;33128;51.580;5.170;2023-03-13T14:06:02;23.80;79.40
47382;DHT22;33128;51.580;5.170;2023-03-13T14:08:37;23.30;81.20
47382;DHT22;33128;51.580;5.170;2023-03-13T14:14:12;23.20;81.30
47382;DHT22;33128;51.580;5.170;2023-03-13T14:16:38;23.50;80.90
47382;DHT22;33128;51.580;5.170;2023-03-13T14:19:27;23.40;81.30
47382;DHT22;33128;51.580;5.170;2023-03-13T14:22:13;22.60;82.40
47382;DHT22;33128;51.580;5.170;2023-03-13T14:24:56;22.50;82.90
47382;DHT22;33128;51.580;5.170;2023-03-13T14:27:21;22.20;83.60
47382;DHT22;33128;51.580;5.170;2023-03-13T14:30:04;21.80;84.40
47382;DHT22;33128;51.580;5.170;2023-03-13T14:32:30;22.00;84.10
47382;DHT22;33128;51.580;5.170;2023-03-13T14:34:56;22.40;83.20
47382;DHT22;33128;51.580;5.170;2023-03-13T14:37:43;22.00;84.10
47382;DHT22;33128;51.580;5.170;2023-03-13T14:42:47;21.10;86.20
47382;DHT22;33128;51.580;5.170;2023-03-13T14:45:26;21.70;85.10
47382;DHT22;33128;51.580;5.170;2023-03-13T14:47:53;21.50;85.50
47382;DHT22;33128;51.580;5.170;2023-03-13T14:50:23;21.40;85.80
47382;DHT22;33128;51.580;5.170;2023-03-13T14:53:12;21.00;87.00
47382;DHT22;33128;51.580;5.170;2023-03-13T14:55:38;20.90;86.80
47382;DHT22;33128;51.580;5.170;2023-03-13T14:58:26;20.80;87.30
47382;DHT22;33128;51.580;5.170;2023-03-13T15:00:53;20.80;87.70
47382;DHT22;33128;51.580;5.170;2023-03-13T15:03:30;21.00;87.00
47382;DHT22;33128;51.580;5.170;2023-03-13T15:06:05;20.70;87.40
47382;DHT22;33128;51.580;5.170;2023-03-13T15:09:13;20.70;88.20
47382;DHT22;33128;51.580;5.170;2023-03-13T15:11:28;20.70;88.50
47382;DHT22;33128;51.580;5.170;2023-03-13T15:13:55;20.50;89.00
47382;DHT22;33128;51.580;5.170;2023-03-13T15:16:22;20.50;89.70
47382;DHT22;33128;51.580;5.170;2023-03-13T15:18:50;20.50;90.00
47382;DHT22;33128;51.580;5.170;2023-03-13T15:21:28;20.50;90.10
47382;DHT22;33128;51.580;5.170;2023-03-13T15:24:10;20.50;90.40
47382;DHT22;33128;51.580;5.170;2023-03-13T15:26:36;20.50;90.40
47382;DHT22;33128;51.580;5.170;2023-03-13T15:29:02;20.50;90.30
47382;DHT22;33128;51.580;5.170;2023-03-13T15:31:28;20.30;90.50
47382;DHT22;33128;51.580;5.170;2023-03-13T15:33:58;20.50;90.40
47382;DHT22;33128;51.580;5.170;2023-03-13T15:36:24;20.50;90.70
47382;DHT22;33128;51.580;5.170;2023-03-13T15:38:50;20.60;90.60
47382;DHT22;33128;51.580;5.170;2023-03-13T15:41:17;20.50;90.70
47382;DHT22;33128;51.580;5.170;2023-03-13T15:43:43;20.50;90.80
47382;DHT22;33128;51.580;5.170;2023-03-13T15:46:12;20.50;90.80
47382;DHT22;33128;51.580;5.170;2023-03-13T15:48:39;20.40;90.90
47382;DHT22;33128;51.580;5.170;2023-03-13T15:51:08;20.40;91.10
47382;DHT22;33128;51.580;5.170;2023-03-13T15:53:34;20.50;91.20
47382;DHT22;33128;51.580;5.170;2023-03-13T15:56:01;20.60;91.00
47382;DHT22;33128;51.580;5.170;2023-03-13T15:58:28;20.50;91.10
47382;DHT22;33128;51.580;5.170;2023-03-13T16:00:55;20.50;91.10
47382;DHT22;33128;51.580;5.170;2023-03-13T16:03:24;20.50;91.10
47382;DHT22;33128;51.580;5.170;2023-03-13T16:05:51;20.40;91.30
47382;DHT22;33128;51.580;5.170;2023-03-13T16:08:25;20.40;91.50
47382;DHT22;33128;51.580;5.170;2023-03-13T16:10:51;20.30;91.60
47382;DHT22;33128;51.580;5.170;2023-03-13T16:13:17;20.30;91.50
47382;DHT22;33128;51.580;5.170;2023-03-13T16:15:44;20.20;91.50
47382;DHT22;33128;51.580;5.170;2023-03-13T16:18:19;20.20;91.90
47382;DHT22;33128;51.580;5.170;2023-03-13T16:20:45;20.20;91.80
47382;DHT22;33128;51.580;5.170;2023-03-13T16:23:11;20.20;91.90
47382;DHT22;33128;51.580;5.170;2023-03-13T16:25:37;20.00;91.80
47382;DHT22;33128;51.580;5.170;2023-03-13T16:28:03;20.00;92.40
47382;DHT22;33128;51.580;5.170;2023-03-13T16:30:32;20.10;92.40
47382;DHT22;33128;51.580;5.170;2023-03-13T16:32:58;20.10;92.20
47382;DHT22;33128;51.580;5.170;2023-03-13T16:35:25;20.00;92.20
47382;DHT22;33128;51.580;5.170;2023-03-13T16:37:52;19.80;92.10
47382;DHT22;33128;51.580;5.170;2023-03-13T16:40:23;19.80;92.70
47382;DHT22;33128;51.580;5.170;2023-03-13T16:42:49;19.60;92.50
47382;DHT22;33128;51.580;5.170;2023-03-13T16:45:15;19.70;92.60
47382;DHT22;33128;51.580;5.170;2023-03-13T16:47:41;19.60;93.10
47382;DHT22;33128;51.580;5.170;2023-03-13T16:50:31;19.60;93.10
47382;DHT22;33128;51.580;5.170;2023-03-13T16:52:57;19.50;93.00
47382;DHT22;33128;51.580;5.170;2023-03-13T16:55:24;19.40;93.30
47382;DHT22;33128;51.580;5.170;2023-03-13T16:57:56;19.30;93.50
47382;DHT22;33128;51.580;5.170;2023-03-13T17:00:24;19.20;93.20
47382;DHT22;33128;51.580;5.170;2023-03-13T17:02:50;19.10;93.40
47382;DHT22;33128;51.580;5.170;2023-03-13T17:05:18;19.10;93.70
47382;DHT22;33128;51.580;5.170;2023-03-13T17:07:46;19.10;93.90
47382;DHT22;33128;51.580;5.170;2023-03-13T17:10:25;19.00;94.40
47382;DHT22;33128;51.580;5.170;2023-03-13T17:12:51;18.90;93.70
47382;DHT22;33128;51.580;5.170;2023-03-13T17:15:17;18.80;93.80
47382;DHT22;33128;51.580;5.170;2023-03-13T17:17:44;18.80;93.80
47382;DHT22;33128;51.580;5.170;2023-03-13T17:20:19;18.60;94.10
47382;DHT22;33128;51.580;5.170;2023-03-13T17:22:45;18.50;94.80
47382;DHT22;33128;51.580;5.170;2023-03-13T17:25:11;18.40;94.70
47382;DHT22;33128;51.580;5.170;2023-03-13T17:27:38;18.30;94.70